Time;durP1;ratioP1;P1;durP2;ratioP2;P2;SDS_P1;SDS_P2;PMS_P1;PMS_P2;Temp;Humidity;BMP_temperature;BMP_pressure;BME280_temperature;BME280_humidity;BME280_pressure;Samples;Min_cycle;Max_cycle;Signal;HPM_P1;HPM_P2
2023/01/03 00:01:36;;;;;;;1.17;0.50;;;7.70;99.90;;;;;;5062527;28;20082;-79
2023/01/03 00:04:03;;;;;;;1.35;0.80;;;7.70;99.90;;;;;;5055015;28;20061;-80
2023/01/03 00:06:36;;;;;;;2.05;0.60;;;7.70;99.90;;;;;;5067595;28;20024;-80
2023/01/03 00:09:05;;;;;;;1.33;0.57;;;7.70;99.90;;;;;;5085316;28;20024;-80
2023/01/03 00:14:23;;;;;;;1.75;0.55;;;7.70;99.90;;;;;;5075078;28;20036;-80
2023/01/03 00:16:55;;;;;;;0.80;0.70;;;7.70;99.90;;;;;;5079717;28;20041;-80
2023/01/03 00:19:23;;;;;;;0.80;0.68;;;7.60;99.90;;;;;;5074913;28;20044;-78
2023/01/03 00:21:48;;;;;;;1.88;0.80;;;7.60;99.90;;;;;;5060415;28;20033;-79
2023/01/03 00:24:15;;;;;;;1.10;0.82;;;7.60;99.90;;;;;;5067867;28;20554;-79
2023/01/03 00:26:41;;;;;;;0.82;0.57;;;7.60;99.90;;;;;;5081791;28;20028;-79
2023/01/03 00:29:08;;;;;;;2.60;0.93;;;7.60;99.90;;;;;;5054978;28;20036;-79
2023/01/03 00:31:35;;;;;;;0.80;0.60;;;7.60;99.90;;;;;;5055458;28;20021;-79
2023/01/03 00:34:01;;;;;;;1.67;0.77;;;7.60;99.90;;;;;;5087496;28;20024;-80
2023/01/03 00:36:27;;;;;;;1.02;0.52;;;7.60;99.90;;;;;;5047132;28;20032;-80
2023/01/03 00:38:53;;;;;;;0.63;0.63;;;7.60;99.90;;;;;;5061777;28;20505;-79
2023/01/03 00:41:19;;;;;;;1.00;0.80;;;7.70;99.90;;;;;;5058801;28;20032;-78
2023/01/03 00:43:48;;;;;;;0.60;0.60;;;7.60;99.90;;;;;;5082706;28;20044;-79
2023/01/03 00:46:16;;;;;;;2.60;0.63;;;7.60;99.90;;;;;;5088094;28;20062;-80
2023/01/03 00:48:43;;;;;;;2.78;0.88;;;7.60;99.90;;;;;;5040742;28;20028;-79
2023/01/03 00:51:15;;;;;;;0.68;0.60;;;7.70;99.90;;;;;;5074715;28;20020;-80
2023/01/03 00:53:42;;;;;;;0.65;0.65;;;7.70;99.90;;;;;;5080025;28;20061;-79
2023/01/03 00:56:11;;;;;;;0.75;0.63;;;7.60;99.90;;;;;;5073852;28;20028;-79
2023/01/03 00:58:38;;;;;;;1.23;0.70;;;7.60;99.90;;;;;;5084658;28;20048;-78
2023/01/03 01:01:12;;;;;;;0.77;0.70;;;7.60;99.90;;;;;;5078788;28;20036;-80
2023/01/03 01:03:41;;;;;;;2.25;0.47;;;7.50;99.90;;;;;;5075093;28;20028;-78
2023/01/03 01:06:28;;;;;;;0.70;0.60;;;7.50;99.90;;;;;;5072655;28;20033;-79
2023/01/03 01:08:56;;;;;;;2.70;0.73;;;7.50;99.90;;;;;;5089127;28;20096;-79
2023/01/03 01:11:23;;;;;;;2.00;0.40;;;7.50;99.90;;;;;;5079104;28;20036;-79
2023/01/03 01:13:49;;;;;;;0.35;0.30;;;7.50;99.90;;;;;;5067115;28;20169;-79
2023/01/03 01:16:18;;;;;;;0.50;0.47;;;7.50;99.90;;;;;;5088989;28;20020;-79
2023/01/03 01:18:46;;;;;;;0.50;0.50;;;7.40;99.90;;;;;;5068991;28;20028;-78
2023/01/03 01:21:15;;;;;;;0.80;0.57;;;7.40;99.90;;;;;;5079357;28;20082;-79
2023/01/03 01:23:42;;;;;;;0.88;0.38;;;7.30;99.90;;;;;;5085053;28;20032;-79
2023/01/03 01:26:11;;;;;;;0.52;0.43;;;7.20;99.90;;;;;;5089163;28;20020;-80
2023/01/03 01:28:38;;;;;;;0.50;0.50;;;7.20;99.90;;;;;;5073035;28;20651;-79
2023/01/03 01:31:05;;;;;;;1.80;0.80;;;7.10;99.90;;;;;;5081059;28;20203;-79
2023/01/03 01:33:33;;;;;;;0.95;0.40;;;7.10;99.90;;;;;;5076407;28;20078;-77
2023/01/03 01:36:09;;;;;;;0.70;0.40;;;7.00;99.90;;;;;;5083510;28;20025;-79
2023/01/03 01:38:35;;;;;;;1.95;0.40;;;7.00;99.90;;;;;;5082945;28;20056;-79
2023/01/03 01:41:02;;;;;;;2.28;0.47;;;6.90;99.90;;;;;;5067065;28;20024;-78
2023/01/03 01:46:21;;;;;;;0.47;0.47;;;6.90;99.90;;;;;;5067284;28;20544;-79
2023/01/03 01:48:51;;;;;;;0.40;0.40;;;6.80;99.90;;;;;;5061051;28;20052;-79
2023/01/03 01:51:21;;;;;;;0.57;0.57;;;6.80;99.90;;;;;;5086028;28;20111;-79
2023/01/03 01:53:46;;;;;;;0.50;0.50;;;6.70;99.90;;;;;;5079999;28;20027;-79
2023/01/03 01:56:14;;;;;;;0.63;0.38;;;6.70;99.90;;;;;;5063246;28;20624;-79
2023/01/03 01:58:43;;;;;;;0.40;0.35;;;6.70;99.90;;;;;;5079038;28;20033;-79
2023/01/03 02:01:11;;;;;;;0.47;0.47;;;6.60;99.90;;;;;;5071794;28;20048;-78
2023/01/03 02:03:38;;;;;;;0.40;0.38;;;6.60;99.90;;;;;;5046902;28;20029;-78
2023/01/03 02:06:07;;;;;;;1.40;0.60;;;6.50;99.90;;;;;;5051732;28;20036;-78
2023/01/03 02:08:32;;;;;;;1.02;0.40;;;6.50;99.90;;;;;;5077128;28;20477;-79
2023/01/03 02:11:04;;;;;;;1.05;0.30;;;6.40;99.90;;;;;;5082976;28;20028;-79
2023/01/03 02:13:57;;;;;;;1.17;0.35;;;6.40;99.90;;;;;;5079060;28;20021;-79
2023/01/03 02:16:47;;;;;;;0.40;0.40;;;6.40;99.90;;;;;;5070786;28;20677;-79
2023/01/03 02:19:21;;;;;;;0.60;0.50;;;6.40;99.90;;;;;;5079341;28;20481;-79
2023/01/03 02:21:59;;;;;;;2.33;0.40;;;6.30;99.90;;;;;;5063628;28;20511;-79
2023/01/03 02:24:53;;;;;;;0.68;0.60;;;6.30;99.90;;;;;;5075271;28;20048;-78
2023/01/03 02:27:28;;;;;;;0.85;0.45;;;6.20;99.90;;;;;;5055149;28;20078;-79
2023/01/03 02:30:36;;;;;;;1.30;0.70;;;6.20;99.90;;;;;;5068355;28;20039;-78
2023/01/03 02:33:04;;;;;;;0.68;0.40;;;6.20;99.90;;;;;;5066609;28;20035;-79
2023/01/03 02:35:50;;;;;;;0.50;0.50;;;6.20;99.90;;;;;;5054131;28;20106;-79
2023/01/03 02:38:49;;;;;;;1.80;0.80;;;6.20;99.90;;;;;;5066351;28;20023;-79
2023/01/03 02:41:44;;;;;;;1.13;0.90;;;6.20;99.90;;;;;;5070180;28;20576;-79
2023/01/03 02:44:28;;;;;;;0.52;0.52;;;6.20;99.90;;;;;;5073066;28;20039;-79
2023/01/03 02:47:04;;;;;;;0.80;0.70;;;6.20;99.90;;;;;;5048837;28;20029;-79
2023/01/03 02:49:35;;;;;;;3.20;0.68;;;6.20;99.90;;;;;;5089564;28;20030;-79
2023/01/03 02:52:06;;;;;;;1.00;0.90;;;6.30;99.90;;;;;;5054118;28;20032;-79
2023/01/03 02:54:58;;;;;;;0.90;0.77;;;6.30;99.90;;;;;;5084939;28;20024;-79
2023/01/03 02:57:48;;;;;;;2.63;1.08;;;6.40;99.90;;;;;;5080300;28;20091;-79
2023/01/03 03:00:19;;;;;;;1.77;1.00;;;6.40;99.90;;;;;;5055217;28;20487;-79
2023/01/03 03:02:55;;;;;;;2.05;0.80;;;6.50;99.90;;;;;;5083854;28;20028;-79
2023/01/03 03:05:31;;;;;;;1.27;0.93;;;6.50;99.90;;;;;;5068564;28;20119;-79
2023/01/03 03:07:56;;;;;;;;;;;6.50;99.90;;;;;;5071584;28;20031;-79
2023/01/03 03:13:39;;;;;;;1.52;0.90;;;6.50;99.90;;;;;;5079172;28;19908;-79
2023/01/03 03:25:03;;;;;;;1.92;1.02;;;6.50;99.90;;;;;;5085252;28;20061;-79
2023/01/03 03:30:19;;;;;;;1.20;1.05;;;6.40;99.90;;;;;;5077620;28;20373;-79
2023/01/03 03:32:48;;;;;;;2.55;1.00;;;6.40;99.90;;;;;;5060769;28;20281;-77
2023/01/03 03:35:18;;;;;;;0.88;0.77;;;6.50;99.90;;;;;;5081671;28;20025;-80
2023/01/03 03:37:48;;;;;;;2.53;0.60;;;6.50;99.90;;;;;;5065880;28;20071;-80
2023/01/03 03:46:12;;;;;;;0.50;0.50;;;6.60;99.90;;;;;;5069638;28;20032;-80
2023/01/03 03:51:44;;;;;;;0.57;0.50;;;6.60;99.90;;;;;;5071309;28;20021;-80
2023/01/03 03:54:15;;;;;;;2.50;0.80;;;6.60;99.90;;;;;;5057801;28;20100;-80
2023/01/03 03:56:46;;;;;;;1.55;0.50;;;6.70;99.90;;;;;;5057330;28;20064;-79
2023/01/03 03:59:14;;;;;;;2.72;0.70;;;6.70;99.90;;;;;;5054734;28;20027;-80
2023/01/03 04:01:41;;;;;;;3.20;1.20;;;6.70;99.90;;;;;;5039170;28;20033;-79
2023/01/03 04:04:17;;;;;;;1.77;0.50;;;6.60;99.90;;;;;;5080762;28;20118;-80
2023/01/03 04:06:47;;;;;;;0.60;0.60;;;6.60;99.90;;;;;;5050266;28;20286;-80
2023/01/03 04:09:13;;;;;;;1.10;0.47;;;6.60;99.90;;;;;;5077042;28;20401;-80
2023/01/03 04:11:40;;;;;;;1.05;0.88;;;6.50;99.90;;;;;;5077927;28;20025;-79
2023/01/03 04:14:06;;;;;;;0.68;0.68;;;6.50;99.90;;;;;;5076048;28;20043;-81
2023/01/03 04:16:32;;;;;;;2.00;0.60;;;6.50;99.90;;;;;;5064761;28;20035;-80
2023/01/03 04:18:58;;;;;;;0.50;0.50;;;6.50;99.90;;;;;;5085747;28;20035;-80
2023/01/03 04:21:25;;;;;;;0.60;0.57;;;6.60;99.90;;;;;;5060248;28;20029;-79
2023/01/03 04:23:51;;;;;;;1.50;0.43;;;6.60;99.90;;;;;;5082430;28;20035;-79
2023/01/03 04:26:17;;;;;;;0.57;0.50;;;6.60;99.90;;;;;;5069171;28;20028;-80
2023/01/03 04:28:43;;;;;;;0.70;0.40;;;6.60;99.90;;;;;;5055912;28;20408;-80
2023/01/03 04:31:09;;;;;;;1.33;0.30;;;6.50;99.90;;;;;;5054147;28;20029;-80
2023/01/03 04:33:34;;;;;;;1.63;0.32;;;6.40;99.90;;;;;;5041735;28;20029;-80
2023/01/03 04:36:00;;;;;;;1.08;0.45;;;6.40;99.90;;;;;;5073672;28;20056;-80
2023/01/03 04:38:26;;;;;;;3.92;0.70;;;6.30;99.90;;;;;;5068842;28;20028;-80
2023/01/03 04:40:52;;;;;;;0.43;0.43;;;6.30;99.90;;;;;;5058870;28;20120;-80
2023/01/03 04:46:03;;;;;;;0.80;0.70;;;6.20;99.90;;;;;;5056898;28;20052;-80
2023/01/03 04:48:29;;;;;;;0.77;0.57;;;6.20;99.90;;;;;;5057233;28;20044;-79
2023/01/03 04:50:57;;;;;;;1.85;0.30;;;6.10;99.90;;;;;;5067826;28;20110;-79
2023/01/03 04:53:25;;;;;;;1.35;0.60;;;6.00;99.90;;;;;;5057487;28;20033;-79
2023/01/03 04:55:52;;;;;;;0.63;0.63;;;6.00;99.90;;;;;;5067066;28;20056;-81
2023/01/03 04:58:19;;;;;;;0.80;0.60;;;5.90;99.90;;;;;;5059197;28;20021;-80
2023/01/03 05:00:45;;;;;;;0.80;0.55;;;5.80;99.90;;;;;;5070472;28;20052;-80
2023/01/03 05:03:11;;;;;;;1.60;0.90;;;5.70;99.90;;;;;;5057367;28;20032;-80
2023/01/03 05:05:38;;;;;;;0.85;0.80;;;5.70;99.90;;;;;;5057305;28;20025;-80
2023/01/03 05:08:07;;;;;;;1.23;0.93;;;5.70;99.90;;;;;;5070337;28;20100;-80
2023/01/03 05:10:34;;;;;;;0.60;0.60;;;5.60;99.90;;;;;;5022457;28;20051;-80
2023/01/03 05:13:00;;;;;;;1.02;0.93;;;5.60;99.90;;;;;;5042073;28;20029;-80
2023/01/03 05:15:30;;;;;;;1.00;0.73;;;5.60;99.90;;;;;;5083830;28;20204;-80
2023/01/03 05:17:57;;;;;;;0.82;0.82;;;5.60;99.90;;;;;;5075119;28;20021;-80
2023/01/03 05:26:03;;;;;;;0.93;0.60;;;5.40;99.90;;;;;;5055951;28;20064;-79
2023/01/03 05:28:29;;;;;;;1.33;1.00;;;5.40;99.90;;;;;;5056264;28;20036;-80
2023/01/03 05:30:59;;;;;;;2.00;0.55;;;5.30;99.90;;;;;;5068882;28;20028;-80
2023/01/03 05:33:25;;;;;;;0.45;0.45;;;5.30;99.90;;;;;;5077501;28;20020;-81
2023/01/03 05:35:51;;;;;;;0.50;0.50;;;5.30;99.90;;;;;;5057840;28;20020;-80
2023/01/03 05:38:18;;;;;;;2.42;0.47;;;5.20;99.90;;;;;;5051957;28;20028;-80
2023/01/03 05:40:44;;;;;;;0.32;0.32;;;5.20;99.90;;;;;;5055033;28;20029;-80
2023/01/03 05:43:10;;;;;;;1.20;0.50;;;5.20;99.90;;;;;;5062698;28;20469;-80
2023/01/03 05:45:39;;;;;;;0.40;0.40;;;5.20;99.90;;;;;;5068662;28;20043;-80
2023/01/03 05:48:06;;;;;;;0.50;0.50;;;5.10;99.90;;;;;;5058156;28;20533;-80
2023/01/03 05:50:32;;;;;;;0.70;0.60;;;5.00;99.90;;;;;;5077301;28;20067;-80
2023/01/03 05:52:58;;;;;;;0.70;0.60;;;5.00;99.90;;;;;;5077906;28;20028;-81
2023/01/03 05:55:24;;;;;;;0.60;0.60;;;4.90;99.90;;;;;;5068132;28;20016;-80
2023/01/03 05:57:51;;;;;;;1.52;0.60;;;4.90;99.90;;;;;;5078225;28;20044;-80
2023/01/03 06:00:18;;;;;;;0.93;0.60;;;4.90;99.90;;;;;;5039081;28;20036;-80
2023/01/03 06:02:44;;;;;;;1.27;0.50;;;4.80;99.90;;;;;;5058400;28;20024;-81
2023/01/03 06:05:11;;;;;;;0.82;0.40;;;4.80;99.90;;;;;;5062742;28;20595;-80
2023/01/03 06:07:36;;;;;;;1.02;0.52;;;4.80;99.90;;;;;;5070223;28;20028;-78
2023/01/03 06:10:04;;;;;;;0.93;0.52;;;4.80;99.90;;;;;;5057713;28;20084;-80
2023/01/03 06:12:31;;;;;;;0.43;0.43;;;4.80;99.90;;;;;;5058204;28;20020;-80
2023/01/03 06:14:57;;;;;;;0.63;0.60;;;4.70;99.90;;;;;;5071978;28;20040;-80
2023/01/03 06:20:09;;;;;;;1.83;0.93;;;4.60;99.90;;;;;;5074869;28;20409;-81
2023/01/03 06:22:34;;;;;;;2.67;1.30;;;4.60;99.90;;;;;;5053744;28;20031;-81
2023/01/03 06:25:00;;;;;;;1.25;1.15;;;4.60;99.90;;;;;;5040813;28;20040;-80
2023/01/03 06:27:27;;;;;;;0.90;0.70;;;4.60;99.90;;;;;;5079720;28;20055;-80
2023/01/03 06:29:53;;;;;;;0.50;0.47;;;4.60;99.90;;;;;;5079687;28;20134;-80
2023/01/03 06:32:19;;;;;;;2.47;0.50;;;4.50;99.90;;;;;;5072487;28;20033;-80
2023/01/03 06:34:45;;;;;;;0.60;0.50;;;4.50;99.90;;;;;;5060299;28;20029;-80
2023/01/03 06:37:12;;;;;;;0.65;0.43;;;4.40;99.90;;;;;;5074782;28;20550;-80
2023/01/03 06:39:37;;;;;;;0.60;0.60;;;4.40;99.90;;;;;;5055981;28;20032;-79
2023/01/03 06:53:11;;;;;;;0.73;0.50;;;4.30;99.90;;;;;;5076937;28;20029;-81
2023/01/03 06:55:38;;;;;;;0.75;0.47;;;4.30;99.90;;;;;;5057251;28;20021;-80
2023/01/03 06:58:04;;;;;;;1.52;0.63;;;4.30;99.90;;;;;;5063254;28;20104;-80
2023/01/03 07:00:30;;;;;;;0.90;0.68;;;4.30;99.90;;;;;;5056942;28;20671;-80
2023/01/03 07:02:56;;;;;;;1.58;0.60;;;4.30;99.90;;;;;;5070081;28;20059;-81
2023/01/03 07:05:22;;;;;;;0.80;0.80;;;4.30;99.90;;;;;;5056569;28;20024;-80
2023/01/03 07:07:48;;;;;;;0.70;0.70;;;4.20;99.90;;;;;;5059988;28;20071;-80
2023/01/03 07:10:14;;;;;;;1.10;0.93;;;4.20;99.90;;;;;;5061313;28;20496;-79
2023/01/03 07:15:24;;;;;;;1.65;1.20;;;4.20;99.90;;;;;;5064035;28;20039;-80
2023/01/03 07:17:50;;;;;;;2.30;1.35;;;4.30;99.90;;;;;;5083661;28;20029;-80
2023/01/03 07:20:16;;;;;;;1.92;1.30;;;4.30;99.90;;;;;;5056963;28;20526;-80
2023/01/03 07:22:42;;;;;;;2.72;1.88;;;4.30;99.90;;;;;;5058012;28;20021;-81
2023/01/03 07:25:09;;;;;;;3.00;1.92;;;4.40;99.90;;;;;;5067565;28;20029;-81
2023/01/03 07:27:34;;;;;;;3.25;1.90;;;4.40;99.90;;;;;;5073976;28;20028;-81
2023/01/03 07:30:00;;;;;;;1.60;1.50;;;4.40;99.90;;;;;;5048956;28;20056;-80
2023/01/03 07:32:26;;;;;;;1.52;1.42;;;4.50;99.90;;;;;;5056809;28;20056;-80
2023/01/03 07:34:52;;;;;;;1.98;1.55;;;4.60;99.90;;;;;;5061344;28;20025;-80
2023/01/03 07:37:18;;;;;;;2.35;2.00;;;4.70;99.90;;;;;;5073362;28;20024;-81
2023/01/03 07:39:44;;;;;;;2.35;1.90;;;4.70;99.90;;;;;;5055766;28;20055;-80
2023/01/03 07:44:55;;;;;;;1.70;1.30;;;4.80;99.90;;;;;;5067639;28;20532;-80
2023/01/03 07:47:21;;;;;;;2.05;1.23;;;4.80;99.90;;;;;;5037824;28;20052;-80
2023/01/03 07:49:47;;;;;;;2.92;1.10;;;4.80;99.90;;;;;;5055243;28;20035;-81
2023/01/03 07:52:12;;;;;;;2.80;1.50;;;4.90;99.90;;;;;;5040260;28;20032;-81
2023/01/03 07:54:38;;;;;;;1.23;0.88;;;5.00;99.90;;;;;;5073828;28;20024;-80
2023/01/03 07:57:04;;;;;;;0.80;0.80;;;4.90;99.90;;;;;;5040750;28;20037;-80
2023/01/03 07:59:30;;;;;;;1.08;0.93;;;5.00;99.90;;;;;;5056544;28;20035;-80
2023/01/03 08:01:56;;;;;;;3.78;1.00;;;5.00;99.90;;;;;;5040438;28;20047;-78
2023/01/03 08:04:21;;;;;;;0.88;0.88;;;5.10;99.90;;;;;;5073183;28;20028;-80
2023/01/03 08:06:49;;;;;;;2.13;0.90;;;5.10;99.90;;;;;;5050986;28;20032;-78
2023/01/03 08:14:54;;;;;;;1.13;0.82;;;5.40;99.90;;;;;;5018095;28;20034;-79
2023/01/03 08:17:21;;;;;;;1.35;0.93;;;5.40;99.90;;;;;;5061425;28;20028;-79
2023/01/03 08:19:47;;;;;;;1.10;1.00;;;5.40;99.90;;;;;;5065256;28;20108;-78
2023/01/03 08:22:13;;;;;;;1.25;0.90;;;5.50;99.90;;;;;;5043291;28;20544;-78
2023/01/03 08:24:39;;;;;;;1.23;1.13;;;5.50;99.90;;;;;;5074438;28;20033;-80
2023/01/03 08:27:04;;;;;;;1.85;1.00;;;5.60;99.90;;;;;;5078888;28;20107;-79
2023/01/03 08:29:31;;;;;;;1.77;1.10;;;5.60;99.90;;;;;;5055460;28;20034;-80
2023/01/03 08:31:58;;;;;;;1.05;0.90;;;5.60;99.90;;;;;;5054537;28;20527;-79
2023/01/03 08:34:26;;;;;;;1.92;1.60;;;5.70;99.90;;;;;;5062259;28;20024;-79
2023/01/03 08:37:01;;;;;;;1.85;1.70;;;5.80;99.90;;;;;;5081700;28;20031;-80
2023/01/03 08:39:34;;;;;;;1.00;0.90;;;5.80;99.90;;;;;;5060555;28;20029;-80
2023/01/03 08:42:04;;;;;;;1.20;1.10;;;5.90;99.90;;;;;;5055185;28;20016;-80
2023/01/03 08:44:30;;;;;;;2.03;1.83;;;5.90;99.90;;;;;;5071640;28;20036;-80
2023/01/03 08:46:59;;;;;;;3.55;2.67;;;6.00;99.90;;;;;;5074197;28;20028;-79
2023/01/03 08:49:25;;;;;;;2.40;2.20;;;6.10;99.90;;;;;;5038111;28;20024;-79
2023/01/03 08:51:51;;;;;;;3.80;2.90;;;6.20;99.90;;;;;;5058580;28;21597;-79
2023/01/03 08:54:17;;;;;;;3.58;2.95;;;6.30;99.90;;;;;;5057983;28;20392;-80
2023/01/03 08:56:44;;;;;;;4.15;3.50;;;6.40;99.90;;;;;;5057528;28;20475;-79
2023/01/03 08:59:10;;;;;;;2.58;1.75;;;6.40;99.90;;;;;;5064917;28;20107;-80
2023/01/03 09:01:36;;;;;;;3.35;3.05;;;6.50;99.90;;;;;;5072059;28;20161;-80
2023/01/03 09:04:04;;;;;;;4.05;2.40;;;6.50;99.90;;;;;;5050829;28;20074;-79
2023/01/03 09:06:30;;;;;;;2.38;2.13;;;6.60;99.90;;;;;;5071951;28;20028;-80
2023/01/03 09:08:56;;;;;;;5.43;2.53;;;6.60;99.90;;;;;;5078730;28;20608;-79
2023/01/03 09:11:22;;;;;;;3.15;2.60;;;6.60;99.90;;;;;;5038756;28;20052;-79
2023/01/03 09:13:47;;;;;;;2.25;2.05;;;6.60;99.90;;;;;;5076755;28;20028;-79
2023/01/03 09:16:15;;;;;;;2.83;2.00;;;6.70;99.90;;;;;;5058383;28;20064;-80
2023/01/03 09:18:41;;;;;;;2.95;1.98;;;6.70;99.90;;;;;;5074734;28;20036;-79
2023/01/03 09:21:07;;;;;;;2.20;1.70;;;6.70;99.90;;;;;;5070373;28;20095;-79
2023/01/03 09:23:34;;;;;;;1.70;1.60;;;6.80;99.90;;;;;;5074041;28;20028;-79
2023/01/03 09:26:01;;;;;;;1.60;1.50;;;6.80;99.90;;;;;;5055640;28;20034;-80
2023/01/03 09:28:27;;;;;;;1.92;1.63;;;6.80;99.90;;;;;;5076220;28;20435;-80
2023/01/03 09:30:53;;;;;;;3.10;1.60;;;6.80;99.90;;;;;;5069710;28;20036;-79
2023/01/03 09:33:19;;;;;;;2.28;1.70;;;6.80;99.90;;;;;;5048672;28;20028;-78
2023/01/03 09:35:45;;;;;;;2.65;1.48;;;6.70;99.90;;;;;;5064368;28;20028;-79
2023/01/03 09:38:11;;;;;;;1.70;1.50;;;6.70;99.90;;;;;;5057695;28;20047;-79
2023/01/03 09:40:44;;;;;;;2.20;1.50;;;6.70;99.90;;;;;;5049016;28;20032;-78
2023/01/03 09:43:16;;;;;;;4.32;1.70;;;6.70;99.90;;;;;;5051230;28;20037;-80
2023/01/03 09:45:44;;;;;;;1.48;1.20;;;6.70;99.90;;;;;;5061975;28;20119;-80
2023/01/03 09:48:20;;;;;;;2.33;1.25;;;6.70;99.90;;;;;;5058320;28;20056;-80
2023/01/03 09:50:46;;;;;;;2.15;1.40;;;6.70;99.90;;;;;;5064839;28;20483;-79
2023/01/03 10:05:38;;;;;;;1.67;1.58;;;6.70;99.90;;;;;;5071529;28;20112;-79
2023/01/03 10:08:40;;;;;;;2.25;1.95;;;6.60;99.90;;;;;;5068775;28;20028;-78
2023/01/03 10:11:25;;;;;;;4.13;1.48;;;6.60;99.90;;;;;;5060355;28;20027;-78
2023/01/03 10:14:23;;;;;;;1.85;1.50;;;6.60;99.90;;;;;;5055468;28;20039;-80
2023/01/03 10:16:59;;;;;;;1.15;1.05;;;6.60;99.90;;;;;;5038597;28;20680;-79
2023/01/03 10:19:47;;;;;;;1.73;1.10;;;6.60;99.90;;;;;;5066868;28;20913;-79
2023/01/03 10:22:17;;;;;;;2.13;1.92;;;6.50;99.90;;;;;;5070935;28;20032;-78
2023/01/03 10:24:47;;;;;;;1.98;1.70;;;6.50;99.90;;;;;;5045926;28;20112;-79
2023/01/03 10:27:14;;;;;;;1.75;1.50;;;6.40;99.90;;;;;;5057631;28;20040;-80
2023/01/03 10:29:41;;;;;;;1.55;1.33;;;6.40;99.90;;;;;;5064271;28;20519;-79
2023/01/03 10:32:45;;;;;;;2.03;1.60;;;6.40;99.90;;;;;;5063741;28;20047;-80
2023/01/03 10:35:20;;;;;;;1.95;1.40;;;6.40;99.90;;;;;;5081265;28;20016;-79
2023/01/03 10:37:49;;;;;;;2.03;1.60;;;6.30;99.90;;;;;;5072009;28;20218;-79
2023/01/03 10:40:15;;;;;;;1.33;1.23;;;6.30;99.90;;;;;;5062433;28;20577;-79
2023/01/03 10:42:42;;;;;;;3.35;1.70;;;6.20;99.90;;;;;;5079727;28;20036;-79
2023/01/03 10:45:19;;;;;;;1.65;1.10;;;6.20;99.90;;;;;;5083280;28;20032;-80
2023/01/03 10:48:00;;;;;;;3.35;1.50;;;6.20;99.90;;;;;;5085783;28;20029;-80
2023/01/03 10:50:27;;;;;;;2.45;1.70;;;6.20;99.90;;;;;;5076768;28;20025;-79
2023/01/03 10:53:02;;;;;;;1.65;1.33;;;6.20;99.90;;;;;;5081176;28;20020;-79
2023/01/03 10:55:29;;;;;;;3.28;1.80;;;6.20;99.90;;;;;;5090060;28;20044;-80
2023/01/03 10:57:54;;;;;;;2.38;1.75;;;6.10;99.90;;;;;;5063097;28;20060;-80
2023/01/03 11:00:37;;;;;;;2.35;1.80;;;6.10;99.90;;;;;;5075524;28;20020;-79
2023/01/03 11:03:19;;;;;;;1.60;1.27;;;6.00;99.90;;;;;;5078617;28;20649;-80
2023/01/03 11:06:00;;;;;;;2.25;1.60;;;6.00;99.90;;;;;;5070365;28;20378;-80
2023/01/03 11:08:38;;;;;;;1.88;1.42;;;6.00;99.90;;;;;;5048852;28;20028;-79
2023/01/03 11:11:13;;;;;;;3.03;1.60;;;6.10;99.90;;;;;;5067878;28;20027;-80
2023/01/03 11:13:41;;;;;;;3.45;1.45;;;6.10;99.90;;;;;;5065709;28;20021;-80
2023/01/03 11:16:18;;;;;;;4.85;1.80;;;6.00;99.90;;;;;;5053969;28;20042;-77
2023/01/03 11:18:59;;;;;;;4.00;1.88;;;6.10;99.90;;;;;;5061263;28;20078;-78
2023/01/03 11:21:44;;;;;;;1.20;1.17;;;6.20;99.90;;;;;;5048361;28;20436;-77
2023/01/03 11:24:33;;;;;;;1.67;1.40;;;6.20;99.90;;;;;;5064538;28;20059;-79
2023/01/03 11:27:16;;;;;;;1.55;1.30;;;6.20;99.90;;;;;;5074599;28;20035;-77
2023/01/03 11:29:58;;;;;;;1.40;1.30;;;6.30;99.90;;;;;;5069805;28;20054;-77
2023/01/03 11:32:53;;;;;;;2.83;2.13;;;6.30;99.90;;;;;;5060000;28;20481;-78
2023/01/03 11:35:35;;;;;;;1.47;1.37;;;6.20;99.90;;;;;;5070317;28;20032;-77
2023/01/03 11:38:13;;;;;;;1.90;1.60;;;6.20;99.90;;;;;;5052233;28;20615;-78
2023/01/03 11:41:04;;;;;;;4.15;1.40;;;6.20;99.90;;;;;;5051682;28;20028;-77
2023/01/03 11:43:40;;;;;;;2.08;1.88;;;6.20;99.90;;;;;;5069394;28;20021;-77
2023/01/03 11:46:06;;;;;;;2.28;1.70;;;6.20;99.90;;;;;;5068756;28;20032;-77
2023/01/03 11:48:45;;;;;;;1.75;1.65;;;6.20;99.90;;;;;;5052871;28;20032;-77
2023/01/03 11:51:40;;;;;;;3.00;2.30;;;6.20;99.90;;;;;;5070684;28;20103;-79
2023/01/03 11:54:49;;;;;;;3.40;2.53;;;6.20;99.90;;;;;;5034184;28;20106;-79
2023/01/03 11:57:40;;;;;;;2.40;1.75;;;6.30;99.90;;;;;;5043577;28;20037;-79
2023/01/03 12:01:04;;;;;;;2.25;1.85;;;6.40;99.90;;;;;;5073430;28;20035;-78
2023/01/03 12:04:32;;;;;;;1.50;1.17;;;6.60;99.90;;;;;;4960600;28;20125;-77
2023/01/03 12:07:22;;;;;;;2.10;1.70;;;6.70;99.90;;;;;;5001058;28;20030;-77
2023/01/03 12:09:48;;;;;;;2.00;1.30;;;6.80;99.90;;;;;;5067154;28;20036;-77
2023/01/03 12:12:22;;;;;;;2.35;1.70;;;6.80;99.90;;;;;;5048843;28;20039;-78
2023/01/03 12:14:55;;;;;;;1.52;1.42;;;6.80;99.90;;;;;;5059389;28;20028;-76
2023/01/03 12:17:43;;;;;;;1.70;1.45;;;6.90;99.90;;;;;;5063303;28;20036;-78
2023/01/03 12:20:27;;;;;;;3.17;1.38;;;7.00;99.90;;;;;;5066608;28;20048;-78
2023/01/03 12:23:03;;;;;;;1.80;1.25;;;7.10;99.90;;;;;;5061068;28;20296;-77
2023/01/03 12:25:31;;;;;;;1.27;1.17;;;7.10;99.90;;;;;;5056562;28;20047;-79
2023/01/03 12:28:17;;;;;;;1.20;0.93;;;7.10;99.90;;;;;;5058130;28;20025;-79
2023/01/03 12:31:07;;;;;;;2.80;1.15;;;7.10;99.90;;;;;;5071315;28;20017;-77
2023/01/03 12:33:47;;;;;;;3.47;1.40;;;7.00;99.90;;;;;;5071800;28;20020;-79
2023/01/03 12:36:41;;;;;;;1.33;1.23;;;6.90;99.90;;;;;;5060579;28;20028;-78
2023/01/03 12:39:37;;;;;;;1.20;1.10;;;6.90;99.90;;;;;;5057351;28;20516;-77
2023/01/03 12:42:32;;;;;;;1.10;1.00;;;6.90;99.90;;;;;;5034251;28;20074;-78
2023/01/03 12:45:29;;;;;;;1.00;0.90;;;6.80;99.90;;;;;;5056367;28;20555;-77
2023/01/03 12:48:08;;;;;;;1.65;1.20;;;6.80;99.90;;;;;;5067204;28;20040;-79
2023/01/03 12:50:53;;;;;;;2.97;1.55;;;6.80;99.90;;;;;;5068392;28;20160;-77
2023/01/03 12:53:25;;;;;;;3.17;1.83;;;6.70;99.90;;;;;;5052802;28;20788;-79
2023/01/03 12:56:25;;;;;;;1.67;1.30;;;6.70;99.90;;;;;;5056598;28;20040;-78
2023/01/03 12:59:43;;;;;;;2.47;1.55;;;6.60;99.90;;;;;;5074662;28;20025;-79
2023/01/03 13:02:20;;;;;;;1.50;1.08;;;6.60;99.90;;;;;;5039812;28;20048;-78
2023/01/03 13:04:51;;;;;;;1.30;1.20;;;6.60;99.90;;;;;;5067564;28;20060;-76
2023/01/03 13:07:32;;;;;;;4.13;1.50;;;6.60;99.90;;;;;;5072886;28;20035;-78
2023/01/03 13:10:03;;;;;;;2.83;1.63;;;6.80;99.90;;;;;;5074398;28;20081;-79
2023/01/03 13:12:33;;;;;;;2.33;1.65;;;6.90;99.90;;;;;;5064873;28;20032;-79
2023/01/03 13:15:06;;;;;;;2.40;1.70;;;7.00;99.90;;;;;;5035096;28;20036;-78
2023/01/03 13:17:43;;;;;;;1.80;1.50;;;7.00;99.90;;;;;;5055437;28;20497;-77
2023/01/03 13:20:30;;;;;;;3.55;1.70;;;7.10;99.90;;;;;;5058330;28;20036;-78
2023/01/03 13:22:57;;;;;;;2.22;1.25;;;7.10;99.90;;;;;;5054047;28;20071;-79
2023/01/03 13:25:36;;;;;;;0.98;0.88;;;7.10;99.90;;;;;;5063022;28;20023;-78
2023/01/03 13:28:19;;;;;;;1.83;1.20;;;7.20;99.90;;;;;;5077257;28;20044;-78
2023/01/03 13:30:46;;;;;;;1.92;0.95;;;7.20;99.90;;;;;;5070425;28;20024;-77
2023/01/03 13:33:14;;;;;;;2.80;1.25;;;7.20;99.90;;;;;;5072711;28;20054;-79
2023/01/03 13:35:43;;;;;;;2.20;1.15;;;7.30;99.90;;;;;;5054383;28;20574;-79
2023/01/03 13:38:31;;;;;;;1.58;0.88;;;7.30;99.90;;;;;;5069998;28;20031;-77
2023/01/03 13:41:01;;;;;;;1.15;1.05;;;7.30;99.90;;;;;;5071231;28;20088;-77
2023/01/03 13:43:34;;;;;;;1.70;1.00;;;7.30;99.90;;;;;;5048424;28;20394;-78
2023/01/03 13:46:28;;;;;;;1.38;0.90;;;7.20;99.90;;;;;;5059787;28;20039;-77
2023/01/03 13:49:03;;;;;;;1.92;1.08;;;7.20;99.90;;;;;;5067950;28;20417;-79
2023/01/03 13:51:39;;;;;;;1.15;0.93;;;7.10;99.90;;;;;;5064685;28;20045;-78
2023/01/03 13:54:12;;;;;;;2.65;1.20;;;7.10;99.90;;;;;;5064748;28;20756;-78
2023/01/03 13:56:43;;;;;;;2.00;1.48;;;7.00;99.90;;;;;;5073640;28;20111;-78
2023/01/03 13:59:34;;;;;;;1.55;1.00;;;6.90;99.90;;;;;;5080934;28;20078;-78
2023/01/03 14:02:00;;;;;;;3.10;1.15;;;6.80;99.90;;;;;;5042696;28;20431;-77
2023/01/03 14:04:55;;;;;;;1.20;1.10;;;6.80;99.90;;;;;;5065473;28;20035;-78
2023/01/03 14:07:20;;;;;;;1.75;1.20;;;6.80;99.90;;;;;;5046347;28;20382;-78
2023/01/03 14:10:38;;;;;;;2.53;1.10;;;6.80;99.90;;;;;;5072170;28;20032;-78
2023/01/03 14:13:32;;;;;;;1.30;1.20;;;6.80;99.90;;;;;;5041044;28;20033;-77
2023/01/03 14:16:27;;;;;;;1.88;0.82;;;6.60;99.90;;;;;;5067823;28;20477;-78
2023/01/03 14:19:11;;;;;;;1.70;1.10;;;6.60;99.90;;;;;;5076205;28;20065;-77
2023/01/03 14:21:50;;;;;;;1.50;1.40;;;6.60;99.90;;;;;;5072985;28;20029;-78
2023/01/03 14:24:22;;;;;;;1.30;1.02;;;6.60;99.90;;;;;;5057313;28;20032;-79
2023/01/03 14:26:49;;;;;;;1.60;1.10;;;6.60;99.90;;;;;;5078066;28;20040;-79
2023/01/03 14:29:25;;;;;;;2.22;0.98;;;6.50;99.90;;;;;;5063770;28;20115;-77
2023/01/03 14:31:54;;;;;;;5.18;1.30;;;6.50;99.90;;;;;;5077740;28;20048;-79
2023/01/03 14:34:33;;;;;;;1.65;1.20;;;6.50;99.90;;;;;;5075490;28;20035;-79
2023/01/03 14:37:01;;;;;;;2.67;1.85;;;6.50;99.90;;;;;;5076701;28;20101;-79
2023/01/03 14:39:31;;;;;;;3.28;1.30;;;6.50;99.90;;;;;;5077066;28;20050;-77
2023/01/03 14:41:59;;;;;;;1.50;1.40;;;6.50;99.90;;;;;;5062373;28;20032;-80